createdAt,value
2022-11-25T00:01:16.487Z,38.13
2022-11-25T00:03:43.972Z,41.97
2022-11-25T00:06:13.282Z,40.10
2022-11-25T00:08:40.965Z,40.37
2022-11-25T00:11:08.751Z,37.77
2022-11-25T00:13:36.034Z,35.80
2022-11-25T00:16:04.603Z,43.37
2022-11-25T00:18:31.658Z,35.90
2022-11-25T00:20:59.316Z,36.90
2022-11-25T00:23:30.396Z,38.10
2022-11-25T00:26:13.192Z,39.23
2022-11-25T00:28:41.593Z,35.17
2022-11-25T00:31:13.376Z,43.97
2022-11-25T00:33:40.582Z,38.37
2022-11-25T00:36:14.291Z,38.03
2022-11-25T00:38:40.864Z,39.27
2022-11-25T00:41:26.158Z,38.93
2022-11-25T00:44:11.457Z,41.33
2022-11-25T00:46:38.030Z,40.20
2022-11-25T00:49:04.644Z,38.60
2022-11-25T00:51:31.244Z,36.77
2022-11-25T00:53:59.250Z,38.13
2022-11-25T00:56:26.110Z,39.27
2022-11-25T00:58:53.418Z,40.63
2022-11-25T01:01:20.143Z,33.63
2022-11-25T01:03:49.562Z,39.00
2022-11-25T01:06:16.213Z,40.67
2022-11-25T01:08:42.927Z,37.50
2022-11-25T01:11:12.451Z,42.03
2022-11-25T01:13:39.013Z,35.83
2022-11-25T01:16:07.507Z,37.60
2022-11-25T01:18:34.207Z,38.67
2022-11-25T01:21:10.847Z,38.47
2022-11-25T01:23:37.676Z,38.37
2022-11-25T01:26:11.276Z,38.03
2022-11-25T01:28:38.314Z,39.47
2022-11-25T01:31:08.023Z,37.90
2022-11-25T01:33:35.211Z,36.50
2022-11-25T01:36:06.343Z,42.10
2022-11-25T01:38:34.208Z,39.77
2022-11-25T01:41:01.499Z,39.27
2022-11-25T01:43:28.988Z,37.60
2022-11-25T01:46:02.832Z,36.17
2022-11-25T01:48:41.437Z,34.87
2022-11-25T01:51:31.651Z,37.43
2022-11-25T01:54:02.950Z,36.33
2022-11-25T01:56:32.687Z,36.50
2022-11-25T01:58:59.488Z,37.67
2022-11-25T02:01:26.102Z,36.00
2022-11-25T02:03:56.179Z,39.17
2022-11-25T02:06:29.223Z,34.47
2022-11-25T02:09:04.041Z,36.63
2022-11-25T02:11:31.956Z,35.57
2022-11-25T02:13:59.974Z,36.60
2022-11-25T02:16:26.668Z,33.27
2022-11-25T02:18:53.436Z,34.73
2022-11-25T02:21:40.143Z,38.20
2022-11-25T02:24:18.162Z,35.47
2022-11-25T02:26:44.866Z,37.10
2022-11-25T02:29:12.317Z,37.10
2022-11-25T02:31:38.921Z,38.27
2022-11-25T02:34:05.637Z,35.33
2022-11-25T02:36:32.413Z,30.27
2022-11-25T02:39:03.071Z,30.30
2022-11-25T02:41:38.905Z,31.13
2022-11-25T02:44:06.460Z,31.83
2022-11-25T02:46:33.271Z,31.80
2022-11-25T02:49:09.433Z,28.70
2022-11-25T02:51:36.977Z,32.00
2022-11-25T02:54:04.110Z,32.47
2022-11-25T02:56:33.530Z,31.73
2022-11-25T02:59:00.759Z,29.37
2022-11-25T03:01:28.055Z,33.60
2022-11-25T03:03:54.633Z,28.13
2022-11-25T03:06:21.222Z,29.97
2022-11-25T03:08:47.941Z,29.53
2022-11-25T03:11:14.884Z,32.37
2022-11-25T03:13:41.522Z,33.27
2022-11-25T03:16:08.829Z,35.67
2022-11-25T03:18:35.546Z,33.27
2022-11-25T03:21:02.241Z,34.10
2022-11-25T03:23:28.940Z,32.10
2022-11-25T03:25:55.714Z,32.67
2022-11-25T03:28:23.191Z,32.70
2022-11-25T03:30:49.727Z,33.83
2022-11-25T03:33:16.263Z,33.73
2022-11-25T03:35:42.831Z,29.87
2022-11-25T03:38:09.370Z,34.23
2022-11-25T03:40:35.917Z,32.70
2022-11-25T03:43:02.637Z,33.70
2022-11-25T03:45:29.332Z,34.37
2022-11-25T03:47:56.001Z,34.17
2022-11-25T03:50:22.559Z,33.00
2022-11-25T03:52:49.108Z,37.03
2022-11-25T03:55:16.653Z,34.83
2022-11-25T03:57:43.185Z,34.60
2022-11-25T04:00:10.668Z,33.90
2022-11-25T04:02:37.359Z,34.20
2022-11-25T04:05:05.411Z,33.67
2022-11-25T04:07:32.118Z,30.40
2022-11-25T04:09:58.743Z,31.73
2022-11-25T04:12:44.190Z,39.47
2022-11-25T04:15:10.995Z,32.97
2022-11-25T04:17:37.625Z,37.33
2022-11-25T04:20:04.702Z,32.77
2022-11-25T04:22:31.424Z,33.67
2022-11-25T04:24:58.045Z,34.77
2022-11-25T04:27:24.630Z,31.60
2022-11-25T04:29:51.172Z,35.27
2022-11-25T04:32:17.879Z,34.97
2022-11-25T04:34:44.422Z,33.23
2022-11-25T04:37:11.040Z,36.60
2022-11-25T04:39:37.566Z,37.03
2022-11-25T04:42:22.906Z,32.87
2022-11-25T04:45:14.077Z,36.90
2022-11-25T04:47:36.107Z,32.77
2022-11-25T04:50:04.273Z,33.40
2022-11-25T04:52:30.922Z,37.00
2022-11-25T04:54:57.480Z,33.13
2022-11-25T04:57:24.224Z,38.10
2022-11-25T04:59:50.810Z,33.47
2022-11-25T05:02:20.683Z,35.77
2022-11-25T05:04:48.681Z,32.80
2022-11-25T05:07:17.365Z,36.23
2022-11-25T05:09:44.321Z,33.47
2022-11-25T05:12:14.829Z,36.57
2022-11-25T05:14:41.734Z,36.13
2022-11-25T05:17:13.526Z,36.90
2022-11-25T05:19:40.199Z,38.47
2022-11-25T05:22:10.638Z,37.53
2022-11-25T05:24:37.661Z,35.20
2022-11-25T05:27:04.592Z,38.27
2022-11-25T05:29:31.173Z,38.90
2022-11-25T05:31:57.962Z,38.67
2022-11-25T05:34:24.498Z,35.33
2022-11-25T05:36:51.887Z,39.97
2022-11-25T05:39:19.002Z,38.73
2022-11-25T05:41:45.653Z,36.33
2022-11-25T05:44:12.298Z,36.60
2022-11-25T05:46:39.136Z,33.90
2022-11-25T05:49:05.699Z,37.23
2022-11-25T05:51:32.237Z,35.43
2022-11-25T05:53:58.827Z,39.20
2022-11-25T05:56:25.413Z,35.23
2022-11-25T05:58:52.017Z,39.33
2022-11-25T06:01:18.689Z,36.97
2022-11-25T06:03:45.364Z,33.80
2022-11-25T06:06:12.066Z,36.50
2022-11-25T06:08:39.405Z,42.93
2022-11-25T06:11:08.208Z,39.03
2022-11-25T06:13:35.024Z,37.30
2022-11-25T06:16:07.981Z,37.10
2022-11-25T06:18:36.682Z,36.20
2022-11-25T06:21:04.718Z,38.77
2022-11-25T06:23:31.745Z,37.83
2022-11-25T06:26:08.758Z,42.03
2022-11-25T06:28:35.553Z,42.37
2022-11-25T06:31:09.972Z,41.00
2022-11-25T06:33:37.098Z,44.33
2022-11-25T06:36:06.759Z,45.53
2022-11-25T06:38:33.425Z,43.47
2022-11-25T06:41:01.960Z,42.27
2022-11-25T06:43:28.788Z,41.20
2022-11-25T06:46:00.854Z,44.73
2022-11-25T06:48:28.017Z,39.07
2022-11-25T06:50:59.466Z,40.60
2022-11-25T06:53:27.134Z,42.63
2022-11-25T06:56:04.349Z,48.30
2022-11-25T06:58:35.878Z,43.63
2022-11-25T07:01:23.461Z,44.13
2022-11-25T07:03:52.766Z,44.83
2022-11-25T07:06:21.002Z,41.83
2022-11-25T07:08:48.078Z,47.17
2022-11-25T07:11:20.106Z,53.27
2022-11-25T07:13:47.694Z,50.00
2022-11-25T07:16:14.907Z,43.80
2022-11-25T07:18:42.191Z,45.20
2022-11-25T07:21:11.516Z,49.63
2022-11-25T07:23:38.772Z,39.43
2022-11-25T07:26:13.545Z,47.37
2022-11-25T07:28:40.543Z,47.43
2022-11-25T07:31:31.748Z,39.23
2022-11-25T07:34:11.026Z,40.07
2022-11-25T07:36:38.211Z,41.63
2022-11-25T07:39:07.481Z,46.43
2022-11-25T07:41:34.706Z,42.63
2022-11-25T07:44:03.711Z,36.37
2022-11-25T07:46:37.977Z,40.67
2022-11-25T07:49:07.794Z,50.70
2022-11-25T07:51:41.793Z,66.03
2022-11-25T07:54:10.780Z,59.17
2022-11-25T07:56:39.257Z,43.43
2022-11-25T07:59:07.349Z,43.10
2022-11-25T08:01:34.088Z,41.47
2022-11-25T08:04:00.728Z,44.33
2022-11-25T08:06:28.971Z,47.47
2022-11-25T08:08:57.495Z,44.53
2022-11-25T08:11:30.392Z,40.37
2022-11-25T08:13:58.102Z,49.53
2022-11-25T08:16:31.260Z,51.63
2022-11-25T08:19:00.609Z,43.47
2022-11-25T08:21:28.061Z,39.50
2022-11-25T08:23:55.131Z,42.73
2022-11-25T08:26:33.887Z,53.10
2022-11-25T08:29:01.046Z,41.90
2022-11-25T08:31:36.800Z,36.57
2022-11-25T08:34:05.092Z,46.17
2022-11-25T08:36:31.985Z,39.03
2022-11-25T08:39:00.603Z,38.20
2022-11-25T08:41:34.238Z,33.57
2022-11-25T08:44:03.754Z,36.37
2022-11-25T08:46:34.102Z,36.30
2022-11-25T08:49:00.901Z,32.83
2022-11-25T08:51:30.544Z,34.07
2022-11-25T08:53:58.617Z,36.33
2022-11-25T08:56:26.524Z,35.93
2022-11-25T08:58:53.969Z,40.33
2022-11-25T09:01:21.855Z,35.43
2022-11-25T09:03:51.401Z,37.70
2022-11-25T09:06:18.701Z,35.80
2022-11-25T09:08:46.342Z,38.93
2022-11-25T09:11:14.165Z,39.47
2022-11-25T09:13:40.872Z,39.67
2022-11-25T09:16:08.973Z,36.97
2022-11-25T09:18:37.011Z,36.77
2022-11-25T09:21:12.432Z,40.00
2022-11-25T09:23:39.989Z,35.10
2022-11-25T09:26:07.664Z,34.80
2022-11-25T09:28:35.534Z,36.37
2022-11-25T09:31:09.524Z,38.03
2022-11-25T09:33:36.269Z,42.20
2022-11-25T09:36:04.020Z,35.97
2022-11-25T09:38:30.910Z,32.20
2022-11-25T09:41:44.977Z,34.17
2022-11-25T09:44:58.722Z,31.60
2022-11-25T09:47:59.126Z,31.77
2022-11-25T09:50:44.035Z,32.10
2022-11-25T09:53:38.561Z,34.77
2022-11-25T09:56:18.118Z,35.40
2022-11-25T09:59:00.310Z,31.90
2022-11-25T10:01:31.543Z,34.70
2022-11-25T10:04:04.961Z,29.80
2022-11-25T10:06:36.886Z,32.13
2022-11-25T10:09:22.048Z,32.73
2022-11-25T10:11:55.777Z,33.50
2022-11-25T10:14:47.408Z,36.03
2022-11-25T10:17:24.484Z,31.53
2022-11-25T10:19:59.240Z,33.30
2022-11-25T10:22:36.205Z,37.30
2022-11-25T10:25:15.188Z,41.63
2022-11-25T10:27:58.652Z,36.37
2022-11-25T10:30:59.791Z,37.97
2022-11-25T10:33:33.299Z,38.17
2022-11-25T10:36:23.964Z,43.87
2022-11-25T10:39:12.988Z,51.70
2022-11-25T10:41:50.982Z,77.10
2022-11-25T10:44:28.628Z,67.33
2022-11-25T10:47:26.016Z,116.33
2022-11-25T10:50:14.461Z,128.23
2022-11-25T10:53:13.255Z,69.23
2022-11-25T10:55:58.015Z,37.70
2022-11-25T10:58:29.444Z,31.30
2022-11-25T11:01:23.536Z,32.77
2022-11-25T11:04:03.376Z,30.40
2022-11-25T11:06:51.957Z,31.20
2022-11-25T11:09:40.678Z,34.77
2022-11-25T11:12:27.854Z,31.73
2022-11-25T11:15:43.165Z,35.43
2022-11-25T11:18:30.148Z,32.67
2022-11-25T11:20:59.271Z,35.93
2022-11-25T11:23:27.630Z,33.47
2022-11-25T11:26:00.227Z,32.53
2022-11-25T11:28:38.486Z,32.67
2022-11-25T11:31:06.479Z,33.37
2022-11-25T11:33:35.684Z,33.27
2022-11-25T11:36:11.552Z,36.40
2022-11-25T11:38:52.440Z,29.43
2022-11-25T11:41:31.958Z,33.07
2022-11-25T11:44:08.336Z,31.17
2022-11-25T11:46:47.916Z,35.73
2022-11-25T11:49:47.718Z,29.77
2022-11-25T11:52:22.885Z,29.97
2022-11-25T11:54:59.014Z,30.53
2022-11-25T11:57:56.669Z,32.57
2022-11-25T12:00:23.585Z,34.53
2022-11-25T12:03:02.380Z,26.07
2022-11-25T12:05:33.842Z,27.87
2022-11-25T12:08:34.227Z,27.77
2022-11-25T12:11:11.209Z,26.87
2022-11-25T12:14:01.013Z,26.87
2022-11-25T12:16:35.903Z,25.53
2022-11-25T12:19:36.606Z,24.13
2022-11-25T12:22:37.691Z,24.67
2022-11-25T12:25:19.457Z,27.60
2022-11-25T12:28:05.407Z,23.70
2022-11-25T12:30:41.884Z,26.53
2022-11-25T12:33:27.517Z,25.47
2022-11-25T12:36:11.966Z,25.63
2022-11-25T12:38:54.807Z,24.13
2022-11-25T12:41:44.623Z,28.40
2022-11-25T12:44:57.208Z,29.00
2022-11-25T12:47:23.921Z,27.37
2022-11-25T12:49:52.623Z,29.77
2022-11-25T12:52:33.027Z,34.23
2022-11-25T12:55:13.450Z,35.63
2022-11-25T12:57:55.464Z,35.40
2022-11-25T13:00:43.067Z,28.90
2022-11-25T13:03:39.951Z,29.00
2022-11-25T13:06:43.193Z,28.50
2022-11-25T13:09:41.116Z,25.47
2022-11-25T13:12:32.531Z,29.60
2022-11-25T13:15:42.031Z,27.70
2022-11-25T13:18:15.967Z,31.80
2022-11-25T13:21:10.265Z,32.37
2022-11-25T13:23:56.223Z,27.93
2022-11-25T13:26:28.882Z,28.00
2022-11-25T13:28:56.906Z,30.90
2022-11-25T13:31:58.970Z,28.00
2022-11-25T13:34:31.934Z,32.23
2022-11-25T13:37:00.434Z,30.67
2022-11-25T13:39:31.367Z,30.77
2022-11-25T13:42:25.062Z,28.77
2022-11-25T13:44:57.675Z,29.63
2022-11-25T13:47:37.017Z,31.73
2022-11-25T13:50:24.468Z,32.80
2022-11-25T13:53:05.227Z,30.03
2022-11-25T13:55:35.189Z,35.90
2022-11-25T13:58:15.782Z,42.00
2022-11-25T14:01:04.019Z,31.97
2022-11-25T14:03:30.870Z,32.90
2022-11-25T14:06:09.141Z,30.70
2022-11-25T14:09:18.042Z,31.87
2022-11-25T14:12:06.958Z,32.07
2022-11-25T14:15:02.654Z,29.13
2022-11-25T14:17:43.566Z,32.53
2022-11-25T14:20:41.080Z,27.47
2022-11-25T14:23:41.834Z,24.80
2022-11-25T14:26:34.147Z,26.63
2022-11-25T14:29:29.891Z,26.43
2022-11-25T14:32:02.369Z,25.83
2022-11-25T14:34:45.386Z,29.00
2022-11-25T14:37:17.222Z,26.40
2022-11-25T14:39:55.637Z,32.50
2022-11-25T14:42:25.281Z,26.43
2022-11-25T14:44:59.122Z,28.33
2022-11-25T14:47:28.194Z,26.33
2022-11-25T14:50:26.721Z,27.20
2022-11-25T14:52:47.052Z,26.57
2022-11-25T14:55:24.406Z,25.77
2022-11-25T14:57:52.607Z,27.40
2022-11-25T15:00:19.884Z,30.60
2022-11-25T15:03:06.438Z,26.87
2022-11-25T15:05:35.920Z,26.33
2022-11-25T15:08:07.580Z,47.03
2022-11-25T15:10:44.477Z,45.83
2022-11-25T15:13:44.330Z,48.60
2022-11-25T15:16:15.282Z,56.70
2022-11-25T15:18:56.687Z,41.37
2022-11-25T15:22:06.968Z,60.20
2022-11-25T15:24:31.291Z,25.57
2022-11-25T15:27:02.761Z,30.23
2022-11-25T15:29:31.217Z,29.30
2022-11-25T15:32:00.080Z,25.93
2022-11-25T15:34:29.584Z,29.63
2022-11-25T15:36:56.151Z,31.40
2022-11-25T15:39:27.725Z,32.17
2022-11-25T15:41:57.271Z,34.60
2022-11-25T15:44:27.036Z,30.50
2022-11-25T15:47:23.088Z,29.73
2022-11-25T15:50:00.302Z,30.87
2022-11-25T15:52:31.034Z,26.27
2022-11-25T15:55:05.102Z,30.63
2022-11-25T15:57:35.900Z,28.33
2022-11-25T16:00:23.246Z,25.87
2022-11-25T16:02:54.901Z,24.10
2022-11-25T16:05:28.079Z,26.33
2022-11-25T16:07:54.843Z,28.27
2022-11-25T16:10:41.664Z,25.03
2022-11-25T16:13:22.023Z,25.57
2022-11-25T16:15:54.849Z,24.70
2022-11-25T16:18:46.665Z,26.93
2022-11-25T16:21:36.452Z,26.33
2022-11-25T16:24:06.356Z,24.43
2022-11-25T16:26:51.201Z,23.87
2022-11-25T16:29:53.175Z,24.67
2022-11-25T16:32:26.133Z,26.27
2022-11-25T16:34:56.556Z,25.57
2022-11-25T16:37:24.021Z,28.00
2022-11-25T16:39:50.797Z,21.27
2022-11-25T16:42:20.392Z,21.70
2022-11-25T16:44:50.066Z,22.87
2022-11-25T16:47:21.617Z,22.87
2022-11-25T16:49:48.997Z,21.70
2022-11-25T16:52:15.961Z,23.07
2022-11-25T16:54:42.571Z,24.57
2022-11-25T16:57:18.870Z,23.80
2022-11-25T16:59:47.218Z,23.93
2022-11-25T17:02:17.945Z,24.70
2022-11-25T17:04:45.159Z,21.40
2022-11-25T17:07:32.173Z,23.03
2022-11-25T17:10:00.544Z,24.03
2022-11-25T17:12:30.805Z,23.20
2022-11-25T17:14:59.853Z,24.90
2022-11-25T17:17:27.207Z,22.33
2022-11-25T17:19:54.001Z,25.93
2022-11-25T17:22:24.165Z,23.47
2022-11-25T17:24:50.965Z,27.93
2022-11-25T17:27:23.671Z,26.70
2022-11-25T17:29:51.625Z,24.60
2022-11-25T17:32:18.314Z,23.33
2022-11-25T17:34:45.003Z,26.10
2022-11-25T17:37:15.139Z,23.17
2022-11-25T17:39:42.047Z,26.17
2022-11-25T17:42:15.907Z,24.53
2022-11-25T17:44:44.153Z,26.47
2022-11-25T17:47:13.169Z,25.33
2022-11-25T17:49:40.256Z,24.57
2022-11-25T17:52:07.186Z,27.67
2022-11-25T17:54:33.980Z,24.77
2022-11-25T17:57:01.434Z,24.63
2022-11-25T17:59:30.670Z,22.80
2022-11-25T18:01:59.150Z,26.13
2022-11-25T18:04:36.431Z,24.23
2022-11-25T18:07:03.277Z,27.07
2022-11-25T18:09:29.946Z,24.60
2022-11-25T18:11:59.263Z,24.73
2022-11-25T18:14:30.101Z,27.27
2022-11-25T18:16:58.726Z,24.20
2022-11-25T18:19:25.538Z,29.27
2022-11-25T18:21:52.616Z,26.43
2022-11-25T18:24:19.180Z,24.23
2022-11-25T18:26:48.999Z,23.93
2022-11-25T18:29:21.548Z,27.40
2022-11-25T18:31:49.798Z,23.67
2022-11-25T18:34:17.711Z,24.77
2022-11-25T18:36:44.836Z,27.00
2022-11-25T18:39:12.023Z,24.53
2022-11-25T18:41:40.158Z,28.30
2022-11-25T18:44:12.843Z,26.57
2022-11-25T18:46:39.722Z,27.33
2022-11-25T18:49:13.131Z,24.43
2022-11-25T18:51:40.859Z,24.17
2022-11-25T18:54:08.124Z,23.67
2022-11-25T18:56:36.252Z,27.00
2022-11-25T18:59:04.108Z,27.50
2022-11-25T19:01:30.867Z,24.43
2022-11-25T19:03:57.596Z,25.17
2022-11-25T19:06:24.219Z,27.00
2022-11-25T19:08:53.218Z,26.60
2022-11-25T19:11:26.618Z,24.07
2022-11-25T19:13:53.468Z,26.43
2022-11-25T19:16:22.367Z,25.13
2022-11-25T19:18:49.401Z,25.40
2022-11-25T19:21:17.651Z,24.90
2022-11-25T19:23:44.799Z,26.13
2022-11-25T19:26:25.001Z,24.03
2022-11-25T19:28:55.848Z,26.37
2022-11-25T19:31:22.653Z,27.80
2022-11-25T19:33:51.428Z,25.33
2022-11-25T19:36:27.197Z,30.33
2022-11-25T19:38:54.372Z,28.63
2022-11-25T19:41:21.104Z,26.87
2022-11-25T19:43:47.809Z,28.07
2022-11-25T19:46:29.649Z,27.73
2022-11-25T19:49:02.954Z,25.60
2022-11-25T19:51:33.748Z,25.27
2022-11-25T19:54:00.447Z,29.00
2022-11-25T19:56:27.265Z,24.70
2022-11-25T19:58:54.651Z,29.50
2022-11-25T20:01:31.152Z,27.30
2022-11-25T20:03:58.451Z,30.03
2022-11-25T20:06:25.885Z,28.27
2022-11-25T20:08:52.470Z,25.87
2022-11-25T20:11:19.640Z,28.20
2022-11-25T20:13:47.001Z,26.03
2022-11-25T20:16:34.125Z,25.40
2022-11-25T20:19:01.096Z,27.17
2022-11-25T20:21:33.440Z,29.20
2022-11-25T20:24:00.894Z,28.10
2022-11-25T20:26:30.933Z,60.10
2022-11-25T20:28:57.573Z,33.87
2022-11-25T20:31:28.681Z,38.00
2022-11-25T20:33:56.817Z,30.93
2022-11-25T20:36:28.902Z,31.37
2022-11-25T20:38:57.744Z,29.87
2022-11-25T20:41:27.887Z,33.33
2022-11-25T20:43:56.414Z,31.17
2022-11-25T20:46:26.977Z,29.47
2022-11-25T20:48:56.393Z,30.67
2022-11-25T20:51:23.730Z,31.37
2022-11-25T20:54:00.853Z,30.50
2022-11-25T20:56:28.072Z,28.90
2022-11-25T20:58:54.868Z,30.50
2022-11-25T21:01:21.980Z,26.93
2022-11-25T21:03:50.194Z,29.33
2022-11-25T21:06:27.432Z,28.93
2022-11-25T21:08:55.663Z,29.77
2022-11-25T21:11:22.847Z,22.83
2022-11-25T21:13:49.950Z,26.93
2022-11-25T21:16:16.558Z,27.77
2022-11-25T21:18:43.286Z,28.50
2022-11-25T21:21:22.091Z,25.43
2022-11-25T21:23:48.721Z,23.70
2022-11-25T21:26:21.405Z,24.90
2022-11-25T21:28:49.997Z,27.80
2022-11-25T21:31:18.992Z,23.07
2022-11-25T21:33:46.955Z,24.37
2022-11-25T21:36:31.592Z,20.23
2022-11-25T21:39:08.624Z,20.60
2022-11-25T21:41:35.763Z,25.83
2022-11-25T21:44:05.857Z,24.13
2022-11-25T21:46:32.644Z,21.67
2022-11-25T21:48:59.322Z,24.57
2022-11-25T21:51:25.970Z,19.47
2022-11-25T21:53:53.697Z,17.27
2022-11-25T21:56:32.037Z,17.93
2022-11-25T21:59:01.291Z,19.67
2022-11-25T22:01:28.916Z,21.50
2022-11-25T22:03:55.558Z,20.73
2022-11-25T22:06:24.750Z,17.17
2022-11-25T22:08:51.411Z,19.67
2022-11-25T22:11:21.761Z,17.53
2022-11-25T22:13:49.485Z,16.23
2022-11-25T22:16:21.457Z,18.23
2022-11-25T22:18:48.086Z,16.93
2022-11-25T22:21:15.050Z,15.70
2022-11-25T22:23:43.065Z,19.07
2022-11-25T22:26:21.156Z,15.47
2022-11-25T22:28:51.510Z,17.37
2022-11-25T22:31:19.855Z,13.63
2022-11-25T22:33:47.121Z,17.27
2022-11-25T22:36:28.451Z,16.90
2022-11-25T22:38:55.063Z,15.70
2022-11-25T22:41:21.752Z,18.80
2022-11-25T22:43:52.336Z,18.30
2022-11-25T22:46:19.103Z,17.73
2022-11-25T22:48:46.535Z,18.73
2022-11-25T22:51:18.192Z,15.70
2022-11-25T22:53:44.810Z,19.60
2022-11-25T22:56:17.890Z,18.23
2022-11-25T22:58:45.008Z,19.30
2022-11-25T23:01:14.915Z,17.83
2022-11-25T23:03:42.057Z,14.33
2022-11-25T23:06:11.949Z,16.40
2022-11-25T23:08:39.026Z,15.30
2022-11-25T23:11:06.466Z,18.30
2022-11-25T23:13:33.207Z,13.87
2022-11-25T23:16:01.924Z,14.67
2022-11-25T23:18:38.877Z,16.47
2022-11-25T23:21:14.109Z,15.77
2022-11-25T23:23:40.847Z,15.53
2022-11-25T23:26:10.646Z,15.73
2022-11-25T23:28:37.474Z,16.50
2022-11-25T23:31:04.396Z,16.30
2022-11-25T23:33:37.932Z,17.23
2022-11-25T23:36:28.338Z,14.20
2022-11-25T23:39:00.952Z,15.07
2022-11-25T23:41:33.437Z,14.33
2022-11-25T23:44:17.426Z,15.97
2022-11-25T23:46:44.533Z,14.13
2022-11-25T23:49:31.385Z,18.53
2022-11-25T23:52:06.063Z,17.70
2022-11-25T23:54:40.527Z,19.17
2022-11-25T23:57:16.381Z,21.90
2022-11-25T23:59:43.785Z,21.53
